Terminal Aerodrome Forecast
Issued by NWS Milwaukee/Sullivan, WI

Home | Current Version | Previous Version | Text Only | Print | Product List | Glossary On
Versions: 1 2 3 4 5 6 7 8 9 10 11 12 13 14 15 16 17 18 19 20 21 22 23 24 25 26 27 28 29 30 31 32 33 34 35 36 37 38 39 40 41 42 43 44 45 46 47 48 49 50
000
FTUS43 KMKX 020539
TAFMKE
TAF
KMKE 020539Z 0206/0312 15008KT P6SM OVC060
     FM020700 16008KT P6SM -SHRA BKN040 OVC070
     FM021100 16008KT 3SM BR VCSH SCT008 BKN025
      TEMPO 0212/0215 2SM -DZ BR BKN008 OVC015
     FM021600 17009KT 6SM BR SCT025 BKN040
     FM022000 16008KT P6SM VCTS SCT020 BKN040CB
     FM022300 12009KT 4SM -TSRA BR SCT006 OVC020CB
     FM030300 15006KT 3/4SM -SHRA BR VCTS OVC005CB
     FM030500 22009KT 3/4SM -SHRA BR OVC004=

USA.gov is the U.S. government's official web portal to all federal, state and local government web resources and services.